Time;durP1;ratioP1;P1;durP2;ratioP2;P2;SDS_P1;SDS_P2;PMS_P1;PMS_P2;Temp;Humidity;BMP_temperature;BMP_pressure;BME280_temperature;BME280_humidity;BME280_pressure;Samples;Min_cycle;Max_cycle;Signal;HPM_P1;HPM_P2
2023/07/26 00:00:59;;;;;;;4.23;2.10;;;14.80;95.40;;;14.38;67.07;100334.22;5055852;28;20214;-73
2023/07/26 00:03:31;;;;;;;3.90;2.00;;;14.70;95.20;;;14.25;67.45;100325.97;5055811;28;20274;-73
2023/07/26 00:06:03;;;;;;;3.93;2.00;;;14.50;95.50;;;14.25;67.45;100325.19;5055583;28;20258;-73
2023/07/26 00:08:35;;;;;;;6.57;2.40;;;14.50;95.80;;;14.03;68.64;100329.72;5055462;28;20282;-73
2023/07/26 00:11:09;;;;;;;2.87;2.50;;;14.30;96.20;;;14.00;68.29;100328.25;5055675;28;20196;-73
2023/07/26 00:13:41;;;;;;;8.27;3.00;;;14.30;96.30;;;13.73;69.69;100337.09;5055562;28;20194;-72
2023/07/26 00:16:13;;;;;;;4.20;2.60;;;14.00;96.80;;;13.79;69.79;100336.31;5055412;28;20313;-73
2023/07/26 00:18:45;;;;;;;5.57;2.60;;;14.10;97.10;;;13.76;69.89;100335.88;5055188;28;20561;-73
2023/07/26 00:21:17;;;;;;;4.67;2.70;;;14.00;97.30;;;13.84;70.13;100336.56;5055118;28;20613;-73
2023/07/26 00:23:49;;;;;;;3.83;2.20;;;14.20;97.10;;;13.78;69.41;100325.72;5055408;28;20203;-73
2023/07/26 00:26:22;;;;;;;4.47;2.13;;;14.10;96.90;;;13.84;69.73;100338.41;5055179;28;20222;-73
2023/07/26 00:28:54;;;;;;;5.13;2.00;;;14.10;97.20;;;13.86;69.50;100336.38;5055269;28;20285;-72
2023/07/26 00:31:26;;;;;;;6.73;2.10;;;14.20;97.30;;;13.83;70.05;100343.00;5055278;28;20273;-72
2023/07/26 00:33:58;;;;;;;3.63;1.90;;;14.20;97.10;;;13.80;69.92;100345.22;5055218;28;20195;-72
2023/07/26 00:36:30;;;;;;;4.10;2.20;;;14.10;97.30;;;13.80;69.93;100342.53;5054786;28;20325;-72
2023/07/26 00:39:03;;;;;;;4.17;2.07;;;14.10;97.30;;;13.77;70.30;100349.09;5054782;28;20678;-72
2023/07/26 00:41:36;;;;;;;5.23;2.40;;;14.10;97.50;;;13.88;69.61;100350.47;5054728;28;20634;-72
2023/07/26 00:44:09;;;;;;;6.70;2.50;;;14.20;97.30;;;13.81;69.66;100349.56;5055009;28;20252;-73
2023/07/26 00:46:41;;;;;;;6.67;2.50;;;14.20;97.30;;;13.82;70.02;100356.63;5054834;28;20652;-73
2023/07/26 00:49:13;;;;;;;5.60;2.10;;;14.10;97.50;;;13.68;70.22;100359.16;5055503;28;20190;-73
2023/07/26 00:51:44;;;;;;;3.40;2.20;;;14.00;97.50;;;13.67;70.77;100359.34;5054906;28;20191;-73
2023/07/26 00:54:20;;;;;;;6.20;2.60;;;14.00;97.70;;;13.66;70.20;100358.50;5054272;28;20194;-73
2023/07/26 00:56:55;;;;;;;5.50;2.27;;;14.00;98.10;;;13.56;70.85;100359.84;5054374;28;20705;-72
2023/07/26 00:59:27;;;;;;;5.27;2.23;;;13.90;97.90;;;13.49;71.08;100357.06;5054757;28;20594;-72
2023/07/26 01:01:59;;;;;;;3.97;1.90;;;13.90;98.10;;;13.41;71.67;100359.03;5054689;28;20277;-72
2023/07/26 01:04:30;;;;;;;4.20;2.10;;;13.70;98.40;;;13.44;71.30;100361.34;5054330;28;20220;-72
2023/07/26 01:07:12;;;;;;;4.33;1.93;;;13.80;98.30;;;13.50;70.81;100361.44;5054147;28;20788;-72
2023/07/26 01:09:56;;;;;;;7.30;2.27;;;13.90;98.30;;;13.46;71.47;100362.81;5054789;28;20281;-72
2023/07/26 01:12:38;;;;;;;4.93;2.20;;;13.80;98.30;;;13.46;71.96;100362.81;5054528;28;20190;-73
2023/07/26 01:15:16;;;;;;;5.20;2.40;;;13.80;98.50;;;13.31;71.86;100363.88;5054199;28;20631;-73
2023/07/26 01:18:06;;;;;;;8.30;2.00;;;13.70;98.50;;;13.25;71.71;100373.53;5053965;28;20623;-73
2023/07/26 01:20:38;;;;;;;4.43;2.03;;;13.60;98.60;;;13.32;71.84;100366.34;5054055;28;20226;-73
2023/07/26 01:23:13;;;;;;;4.90;2.30;;;13.70;98.70;;;13.32;71.76;100371.72;5054315;28;20190;-73
2023/07/26 01:25:45;;;;;;;5.00;2.30;;;13.70;98.80;;;13.23;71.71;100367.50;5054141;28;20279;-73
2023/07/26 01:28:17;;;;;;;5.67;2.40;;;13.60;98.90;;;13.28;72.08;100370.47;5053827;28;20267;-73
2023/07/26 01:30:50;;;;;;;7.20;2.23;;;13.70;98.70;;;13.33;72.10;100373.41;5054141;28;20222;-73
2023/07/26 01:33:24;;;;;;;5.17;2.30;;;13.60;98.90;;;12.92;73.38;100369.50;5054819;28;20202;-72
2023/07/26 01:35:59;;;;;;;3.53;2.27;;;13.40;99.30;;;13.04;72.64;100357.28;5054025;28;20280;-73
2023/07/26 01:38:34;;;;;;;3.60;2.30;;;13.50;99.30;;;13.04;73.59;100365.34;5054070;28;20273;-73
2023/07/26 01:41:08;;;;;;;5.00;2.33;;;13.40;99.60;;;12.96;73.73;100365.41;5053718;28;20237;-73
2023/07/26 01:43:41;;;;;;;5.07;2.27;;;13.40;99.40;;;12.91;74.21;100371.34;5053687;28;20599;-72
2023/07/26 01:46:15;;;;;;;6.27;2.20;;;13.40;99.70;;;12.88;74.21;100370.88;5053854;28;20230;-73
2023/07/26 01:48:47;;;;;;;5.07;2.47;;;13.20;99.90;;;12.86;73.66;100360.31;5053754;28;20299;-73
2023/07/26 01:51:19;;;;;;;4.93;2.57;;;13.30;99.80;;;12.90;73.62;100366.16;5053806;28;20622;-73
2023/07/26 01:53:53;;;;;;;4.70;2.20;;;13.30;99.90;;;13.03;73.25;100377.09;5053816;28;20190;-73
2023/07/26 01:56:25;;;;;;;6.97;2.30;;;13.40;99.80;;;12.95;74.68;100366.44;5053362;28;20706;-73
2023/07/26 01:58:57;;;;;;;4.87;2.10;;;13.40;99.90;;;13.02;73.93;100370.03;5053702;28;20281;-73
2023/07/26 02:01:29;;;;;;;4.67;2.30;;;13.40;99.90;;;13.04;73.35;100368.03;5053323;28;20706;-73
2023/07/26 02:04:01;;;;;;;4.47;2.40;;;13.40;99.90;;;12.84;74.55;100369.59;5053619;28;20218;-73
2023/07/26 02:06:33;;;;;;;4.30;2.20;;;13.30;99.90;;;12.93;74.35;100369.31;5052666;28;20244;-73
2023/07/26 02:09:08;;;;;;;4.60;2.10;;;13.30;99.90;;;12.91;74.59;100363.28;5053191;28;20214;-73
2023/07/26 02:11:40;;;;;;;3.73;2.30;;;13.30;99.90;;;12.75;74.21;100360.75;5053591;28;20256;-73
2023/07/26 02:14:12;;;;;;;4.10;2.20;;;13.20;99.90;;;12.64;75.26;100362.03;5054359;28;20190;-72
2023/07/26 02:16:44;;;;;;;4.03;2.13;;;13.10;99.90;;;12.58;74.90;100361.94;5053832;28;20317;-73
2023/07/26 02:19:16;;;;;;;8.00;2.27;;;13.00;99.90;;;12.68;75.48;100368.72;5053464;28;20277;-73
2023/07/26 02:21:48;;;;;;;6.70;2.40;;;13.10;99.90;;;12.75;74.41;100373.34;5053688;28;20289;-73
2023/07/26 02:24:25;;;;;;;4.10;2.23;;;13.10;99.90;;;12.82;74.99;100366.25;5053460;28;20244;-72
2023/07/26 02:26:57;;;;;;;4.10;2.00;;;13.20;99.90;;;12.77;74.93;100357.91;5053270;28;20230;-73
2023/07/26 02:29:33;;;;;;;3.63;2.00;;;13.10;99.90;;;12.85;74.10;100363.19;5053285;28;20207;-73
2023/07/26 02:32:05;;;;;;;4.10;2.10;;;13.20;99.90;;;12.85;74.90;100364.03;5053302;28;20269;-72
2023/07/26 02:34:37;;;;;;;4.87;2.53;;;13.20;99.90;;;12.86;74.46;100364.84;5053342;28;20269;-73
2023/07/26 02:37:09;;;;;;;4.30;2.40;;;13.30;99.90;;;12.88;74.23;100371.72;5052943;28;20777;-73
2023/07/26 02:39:42;;;;;;;4.20;2.20;;;13.30;99.90;;;12.87;75.15;100374.59;5053252;28;20191;-73
2023/07/26 02:42:14;;;;;;;4.30;2.20;;;13.30;99.90;;;12.81;75.25;100369.97;5053981;28;20210;-73
2023/07/26 02:44:54;;;;;;;3.53;2.37;;;13.20;99.90;;;12.84;74.59;100374.97;5053303;28;20292;-73
2023/07/26 02:47:25;;;;;;;3.60;2.50;;;13.20;99.90;;;12.70;74.88;100369.38;5053047;28;20236;-73
2023/07/26 02:49:57;;;;;;;4.33;2.60;;;13.10;99.90;;;12.53;75.80;100370.56;5053708;28;20205;-73
2023/07/26 02:52:29;;;;;;;5.30;2.70;;;12.90;99.90;;;12.49;75.87;100380.00;5053185;28;20286;-72
2023/07/26 02:55:02;;;;;;;7.40;2.50;;;13.00;99.90;;;12.45;76.59;100372.47;5053156;28;20232;-74
2023/07/26 02:57:34;;;;;;;4.00;2.33;;;12.80;99.90;;;12.44;76.55;100371.63;5052735;28;20234;-74
2023/07/26 03:00:07;;;;;;;4.83;2.30;;;12.80;99.90;;;12.38;76.23;100382.25;5053086;28;20241;-74
2023/07/26 03:02:39;;;;;;;4.13;2.17;;;12.80;99.90;;;12.43;75.93;100378.00;5052769;28;20186;-74
2023/07/26 03:05:11;;;;;;;5.77;2.30;;;12.90;99.90;;;12.46;76.56;100380.34;5053026;28;20194;-73
2023/07/26 03:07:43;;;;;;;4.43;2.43;;;12.90;99.90;;;12.47;76.14;100384.69;5052857;28;20324;-73
2023/07/26 03:10:17;;;;;;;5.13;2.40;;;12.90;99.90;;;12.39;76.39;100392.84;5052949;28;20205;-73
2023/07/26 03:12:48;;;;;;;2.90;2.30;;;12.80;99.90;;;12.44;76.74;100387.75;5052887;28;20237;-73
2023/07/26 03:15:20;;;;;;;3.97;2.17;;;12.80;99.90;;;12.52;76.66;100389.53;5052896;28;20268;-73
2023/07/26 03:17:52;;;;;;;4.87;2.20;;;13.00;99.90;;;12.56;75.92;100391.69;5055203;28;20696;-73
2023/07/26 03:20:24;;;;;;;4.63;2.50;;;13.00;99.90;;;12.61;75.88;100399.16;5056613;28;20225;-73
2023/07/26 03:22:56;;;;;;;5.03;2.50;;;13.10;99.90;;;12.64;75.63;100399.66;5056564;28;20197;-73
2023/07/26 03:25:30;;;;;;;3.93;2.30;;;13.10;99.90;;;12.66;75.78;100403.00;5056513;28;20288;-74
2023/07/26 03:28:03;;;;;;;2.77;2.13;;;13.10;99.90;;;12.55;75.64;100400.75;5056322;28;20283;-74
2023/07/26 03:30:35;;;;;;;3.93;2.50;;;13.00;99.90;;;12.51;76.43;100403.97;5056374;28;20196;-74
2023/07/26 03:33:08;;;;;;;3.80;2.40;;;13.00;99.90;;;12.50;76.40;100403.13;5056350;28;20277;-74
2023/07/26 03:35:40;;;;;;;11.73;2.63;;;12.90;99.90;;;12.43;76.26;100402.19;5056345;28;20270;-74
2023/07/26 03:38:12;;;;;;;5.67;2.40;;;12.90;99.90;;;12.23;77.12;100400.16;5056262;28;20190;-74
2023/07/26 03:40:46;;;;;;;7.83;2.83;;;12.70;99.90;;;12.19;78.30;100402.38;5055923;28;20267;-74
2023/07/26 03:43:18;;;;;;;3.03;2.37;;;12.60;99.90;;;12.13;78.36;100397.72;5055847;28;20651;-74
2023/07/26 03:45:50;;;;;;;3.93;2.30;;;12.50;99.90;;;12.06;79.19;100404.81;5056090;28;20240;-74
2023/07/26 03:48:22;;;;;;;6.17;2.60;;;12.50;99.90;;;12.02;79.42;100411.56;5056044;28;20245;-74
2023/07/26 03:50:54;;;;;;;4.33;2.40;;;12.50;99.90;;;12.04;78.55;100404.16;5056021;28;20190;-74
2023/07/26 03:53:26;;;;;;;2.60;2.40;;;12.50;99.90;;;11.96;78.59;100404.19;5055978;28;20241;-74
2023/07/26 03:55:59;;;;;;;6.53;2.70;;;12.40;99.90;;;11.85;79.35;100407.31;5055830;28;20281;-74
2023/07/26 03:58:31;;;;;;;4.63;2.33;;;12.40;99.90;;;11.87;79.33;100411.47;5055933;28;20281;-74
2023/07/26 04:01:03;;;;;;;3.80;2.30;;;12.40;99.90;;;11.86;79.56;100415.16;5055854;28;20285;-74
2023/07/26 04:03:36;;;;;;;3.77;2.70;;;12.30;99.90;;;11.88;79.45;100417.69;5055819;28;20194;-73
2023/07/26 04:06:11;;;;;;;3.27;2.80;;;12.30;99.90;;;11.96;78.87;100409.56;5055351;28;20254;-73
2023/07/26 04:08:43;;;;;;;5.77;2.37;;;12.40;99.90;;;11.89;80.13;100414.81;5055639;28;20232;-73
2023/07/26 04:11:16;;;;;;;5.37;2.47;;;12.40;99.90;;;11.89;79.30;100419.34;5055346;28;20200;-73
2023/07/26 04:13:48;;;;;;;4.60;2.53;;;12.40;99.90;;;11.87;79.10;100416.00;5055608;28;20273;-73
2023/07/26 04:16:22;;;;;;;4.27;2.27;;;12.40;99.90;;;11.81;79.79;100408.66;5055522;28;20236;-73
2023/07/26 04:18:53;;;;;;;8.20;2.77;;;12.30;99.90;;;11.77;80.52;100416.22;5055243;28;20212;-73
2023/07/26 04:21:25;;;;;;;5.60;3.10;;;12.30;99.90;;;11.83;79.47;100420.03;5055163;28;20285;-73
2023/07/26 04:23:57;;;;;;;5.37;2.73;;;12.30;99.90;;;11.83;79.83;100415.53;5055132;28;20614;-73
2023/07/26 04:26:30;;;;;;;3.67;2.73;;;12.30;99.90;;;11.91;80.14;100425.38;5054998;28;20724;-73
2023/07/26 04:29:02;;;;;;;3.70;2.50;;;12.40;99.90;;;11.81;79.66;100417.56;5054336;28;20210;-73
2023/07/26 04:31:34;;;;;;;5.50;2.50;;;12.40;99.90;;;11.91;79.64;100426.22;5055302;28;20230;-74
2023/07/26 04:34:06;;;;;;;4.87;2.53;;;12.40;99.90;;;11.97;79.91;100427.34;5055282;28;20236;-74
2023/07/26 04:36:38;;;;;;;4.63;2.60;;;12.60;99.90;;;11.98;79.66;100423.66;5055109;28;20262;-74
2023/07/26 04:39:12;;;;;;;3.77;2.70;;;12.50;99.90;;;11.87;80.02;100422.22;5055056;28;20277;-74
2023/07/26 04:41:45;;;;;;;5.37;2.70;;;12.40;99.90;;;11.91;79.66;100420.84;5054795;28;20214;-74
2023/07/26 04:44:17;;;;;;;4.07;2.80;;;12.50;99.90;;;11.87;80.14;100429.41;5055065;28;20233;-74
2023/07/26 04:46:49;;;;;;;4.73;2.97;;;12.50;99.90;;;11.93;80.37;100426.84;5054634;28;20765;-74
2023/07/26 04:49:21;;;;;;;3.73;2.73;;;12.50;99.90;;;12.00;79.84;100426.97;5054912;28;20217;-74
2023/07/26 04:51:53;;;;;;;5.33;2.63;;;12.50;99.90;;;11.98;79.83;100431.72;5054988;28;20285;-74
2023/07/26 04:54:25;;;;;;;4.47;2.50;;;12.50;99.90;;;11.96;79.85;100436.41;5054848;28;20194;-74
2023/07/26 04:56:58;;;;;;;4.43;2.73;;;12.60;99.90;;;12.06;79.79;100437.00;5054732;28;20232;-74
2023/07/26 04:59:29;;;;;;;5.80;3.50;;;12.60;99.90;;;12.02;80.50;100441.88;5054762;28;20218;-74
2023/07/26 05:02:01;;;;;;;5.20;2.90;;;12.60;99.90;;;12.03;80.51;100440.88;5054634;28;20191;-74
2023/07/26 05:04:33;;;;;;;4.20;2.70;;;12.50;99.90;;;11.99;79.72;100441.41;5054633;28;20206;-74
2023/07/26 05:07:05;;;;;;;6.70;2.73;;;12.60;99.90;;;11.99;80.65;100452.97;5054261;28;20748;-74
2023/07/26 05:09:37;;;;;;;4.93;2.87;;;12.60;99.90;;;11.95;80.56;100453.53;5054479;28;20216;-74
2023/07/26 05:12:12;;;;;;;5.83;2.90;;;12.50;99.90;;;12.05;80.75;100451.47;5054156;28;20639;-73
2023/07/26 05:14:44;;;;;;;4.27;2.70;;;12.60;99.90;;;12.10;80.01;100455.25;5054511;28;20194;-74
2023/07/26 05:17:16;;;;;;;5.03;2.67;;;12.70;99.90;;;12.13;80.63;100459.44;5054316;28;20230;-74
2023/07/26 05:19:48;;;;;;;3.97;2.60;;;12.70;99.90;;;12.17;80.28;100458.06;5054396;28;20281;-74
2023/07/26 05:22:20;;;;;;;5.10;3.00;;;12.70;99.90;;;12.14;80.96;100456.59;5054303;28;20213;-74
2023/07/26 05:24:52;;;;;;;5.63;2.90;;;12.70;99.90;;;12.14;80.90;100459.28;5053925;28;20635;-74
2023/07/26 05:27:25;;;;;;;6.03;2.83;;;12.70;99.90;;;12.09;81.05;100460.78;5054176;28;20237;-74
2023/07/26 05:29:58;;;;;;;5.87;2.90;;;12.60;99.90;;;12.10;81.56;100459.78;5054060;28;20210;-74
2023/07/26 05:32:30;;;;;;;5.17;3.03;;;12.70;99.90;;;12.06;81.13;100463.84;5054070;28;20200;-74
2023/07/26 05:35:02;;;;;;;5.63;2.77;;;12.60;99.90;;;12.09;81.55;100468.84;5053716;28;20639;-74
2023/07/26 05:37:36;;;;;;;7.03;3.10;;;12.70;99.90;;;12.10;81.08;100470.53;5053944;28;20313;-74
2023/07/26 05:40:09;;;;;;;6.00;3.03;;;12.70;99.90;;;12.06;81.96;100466.53;5053652;28;20242;-74
2023/07/26 05:42:42;;;;;;;11.37;3.00;;;12.70;99.90;;;12.08;82.08;100460.00;5054766;28;20194;-74
2023/07/26 05:45:15;;;;;;;6.67;3.43;;;12.70;99.90;;;12.11;81.82;100462.31;5053949;28;20294;-74
2023/07/26 05:47:47;;;;;;;5.53;3.30;;;12.70;99.90;;;12.10;81.59;100468.69;5053782;28;20313;-74
2023/07/26 05:50:18;;;;;;;5.30;2.83;;;12.70;99.90;;;12.14;81.48;100471.84;5053281;28;20214;-73
2023/07/26 05:52:50;;;;;;;4.57;2.90;;;12.70;99.90;;;12.16;82.28;100480.53;5053809;28;20597;-73
2023/07/26 05:55:22;;;;;;;4.87;2.83;;;12.70;99.90;;;12.17;81.28;100488.44;5053754;28;20190;-73
2023/07/26 05:57:56;;;;;;;7.17;2.73;;;12.80;99.90;;;12.23;81.01;100481.50;5053360;28;20663;-73
2023/07/26 06:00:28;;;;;;;8.53;3.57;;;12.80;99.90;;;12.23;81.72;100478.84;5053701;28;20221;-73
2023/07/26 06:02:59;;;;;;;4.20;2.83;;;12.80;99.90;;;12.27;81.64;100482.84;5053620;28;20193;-73
2023/07/26 06:05:32;;;;;;;4.67;2.50;;;12.90;99.90;;;12.35;81.72;100484.63;5053648;28;20218;-73
2023/07/26 06:08:04;;;;;;;7.10;3.20;;;12.90;99.90;;;12.38;80.57;100489.66;5053513;28;20265;-73
2023/07/26 06:10:36;;;;;;;4.73;3.10;;;12.90;99.90;;;12.43;80.86;100487.28;5053513;28;20221;-73
2023/07/26 06:13:12;;;;;;;9.57;3.10;;;13.00;99.90;;;12.45;80.35;100477.19;5053205;28;20638;-73
2023/07/26 06:15:45;;;;;;;8.13;3.27;;;13.00;99.90;;;12.52;80.77;100484.34;5053502;28;20204;-73
2023/07/26 06:18:17;;;;;;;7.50;3.20;;;13.20;99.90;;;12.60;80.86;100481.59;5053461;28;20225;-73
2023/07/26 06:20:48;;;;;;;5.80;3.20;;;13.20;99.90;;;12.64;80.20;100482.06;5053131;28;20225;-73
2023/07/26 06:23:20;;;;;;;4.93;3.10;;;13.30;99.90;;;12.68;79.95;100481.53;5053401;28;20222;-73
2023/07/26 06:25:52;;;;;;;4.43;2.97;;;13.30;99.90;;;12.71;81.25;100478.47;5053023;28;20190;-73
2023/07/26 06:28:26;;;;;;;6.87;2.80;;;13.40;99.90;;;12.77;81.08;100485.00;5053416;28;20232;-73
2023/07/26 06:30:58;;;;;;;5.93;3.30;;;13.40;99.90;;;12.81;80.76;100485.47;5053288;28;20253;-73
2023/07/26 06:33:30;;;;;;;6.70;3.20;;;13.50;99.90;;;12.88;80.61;100486.41;5053082;28;20195;-74
2023/07/26 06:36:02;;;;;;;7.03;3.50;;;13.50;99.90;;;12.97;80.66;100479.97;5053228;28;20281;-73
2023/07/26 06:38:34;;;;;;;7.10;3.33;;;13.60;99.90;;;13.02;80.84;100483.75;5053319;28;20190;-73
2023/07/26 06:41:06;;;;;;;6.83;3.30;;;13.60;99.90;;;13.08;80.71;100488.41;5052967;28;20209;-73
2023/07/26 06:43:40;;;;;;;4.40;3.07;;;13.70;99.90;;;13.17;80.20;100491.88;5052913;28;20710;-73
2023/07/26 06:46:12;;;;;;;6.20;3.37;;;13.80;99.90;;;13.35;80.61;100489.69;5052819;28;20276;-73
2023/07/26 06:48:44;;;;;;;6.07;2.90;;;14.00;99.90;;;13.46;79.31;100489.22;5053187;28;20194;-73
2023/07/26 06:51:17;;;;;;;5.43;3.30;;;14.10;99.90;;;13.59;79.23;100492.13;5053244;28;20221;-73
2023/07/26 06:53:49;;;;;;;4.30;3.00;;;14.30;99.90;;;13.71;78.37;100495.16;5057134;28;20199;-73
2023/07/26 06:56:20;;;;;;;6.90;2.80;;;14.40;99.90;;;13.79;77.54;100496.91;5056689;28;20252;-73
2023/07/26 06:58:56;;;;;;;5.63;3.07;;;14.40;99.90;;;13.80;76.97;100499.41;5056778;28;20642;-73
2023/07/26 07:01:28;;;;;;;5.33;2.80;;;14.50;99.90;;;13.78;77.12;100495.25;5056992;28;20190;-73
2023/07/26 07:04:00;;;;;;;6.47;3.00;;;14.40;99.90;;;13.75;76.98;100501.84;5056668;28;20664;-73
2023/07/26 07:06:45;;;;;;;5.67;3.00;;;14.40;99.90;;;13.77;76.82;100498.97;5056878;28;20284;-73
2023/07/26 07:09:18;;;;;;;5.30;3.30;;;14.40;99.90;;;13.76;77.04;100497.28;5056840;28;20234;-73
2023/07/26 07:11:50;;;;;;;5.33;2.90;;;14.40;99.90;;;13.78;77.47;100503.31;5056465;28;20828;-73
2023/07/26 07:14:23;;;;;;;7.20;3.30;;;14.40;99.90;;;13.83;76.94;100508.97;5056747;28;20187;-73
2023/07/26 07:16:55;;;;;;;13.87;3.03;;;14.50;99.90;;;13.95;77.01;100504.78;5056650;28;20308;-74
2023/07/26 07:19:27;;;;;;;4.17;2.53;;;14.60;99.90;;;14.00;76.69;100499.69;5056684;28;20256;-74
2023/07/26 07:21:59;;;;;;;5.53;3.13;;;14.70;99.90;;;14.07;76.55;100501.44;5056621;28;20225;-74
2023/07/26 07:24:31;;;;;;;4.53;2.67;;;14.70;99.90;;;14.11;76.00;100504.56;5056288;28;20705;-74
2023/07/26 07:27:03;;;;;;;9.23;2.90;;;14.70;99.90;;;14.25;74.82;100503.69;5056512;28;20619;-74
2023/07/26 07:29:37;;;;;;;4.63;2.20;;;14.90;99.90;;;14.33;74.99;100495.50;5056498;28;20288;-74
2023/07/26 07:32:13;;;;;;;5.03;2.57;;;15.00;99.90;;;14.57;72.89;100497.88;5056403;28;20209;-74
2023/07/26 07:34:53;;;;;;;3.77;2.27;;;15.20;99.90;;;14.62;74.30;100498.13;5056366;28;20213;-73
2023/07/26 07:37:29;;;;;;;4.60;2.37;;;15.30;99.90;;;14.67;72.80;100497.56;5056315;28;20308;-74
2023/07/26 07:40:01;;;;;;;5.40;2.20;;;15.30;99.90;;;14.64;71.48;100506.88;5056127;28;20254;-74
2023/07/26 07:42:35;;;;;;;7.27;2.30;;;15.30;99.10;;;14.63;71.74;100497.09;5055908;28;20615;-73
2023/07/26 07:45:12;;;;;;;3.80;2.40;;;15.30;99.30;;;14.64;73.99;100511.41;5055893;28;20635;-73
2023/07/26 07:47:44;;;;;;;5.87;1.90;;;15.30;99.90;;;14.60;75.49;100502.03;5055727;28;20257;-74
2023/07/26 07:50:16;;;;;;;4.07;2.10;;;15.20;99.90;;;14.50;75.91;100510.44;5055699;28;20670;-74
2023/07/26 07:52:48;;;;;;;8.20;2.10;;;15.10;99.90;;;14.44;77.57;100497.75;5056064;28;20276;-74
2023/07/26 07:55:19;;;;;;;3.83;1.70;;;15.00;99.90;;;14.27;77.69;100512.44;5055980;28;20198;-74
2023/07/26 07:57:51;;;;;;;4.80;2.10;;;14.80;99.90;;;14.28;78.58;100507.91;5055573;28;20778;-74
2023/07/26 08:00:25;;;;;;;4.43;2.10;;;14.80;99.90;;;14.29;80.49;100515.75;5055903;28;20186;-74
2023/07/26 08:02:56;;;;;;;4.30;2.43;;;14.80;99.90;;;14.32;81.66;100507.31;5055006;28;20190;-74
2023/07/26 08:05:28;;;;;;;4.37;2.47;;;14.80;99.90;;;14.28;80.22;100516.78;5055420;28;20543;-73
2023/07/26 08:08:00;;;;;;;3.63;2.57;;;14.90;99.90;;;14.32;81.05;100510.00;5055721;28;20316;-73
2023/07/26 08:10:32;;;;;;;3.23;2.60;;;14.90;99.90;;;14.39;81.63;100510.09;5055637;28;20210;-73
2023/07/26 08:13:04;;;;;;;4.80;3.00;;;14.90;99.90;;;14.51;82.53;100505.91;5055683;28;20194;-73
2023/07/26 08:15:39;;;;;;;5.30;3.10;;;15.10;99.90;;;14.58;81.94;100504.94;5055672;28;20282;-73
2023/07/26 08:18:11;;;;;;;6.27;3.00;;;15.20;99.90;;;14.67;83.07;100509.16;5055612;28;20189;-73
2023/07/26 08:20:43;;;;;;;3.70;2.53;;;15.20;99.90;;;14.69;80.08;100506.28;5055287;28;20737;-73
2023/07/26 08:23:15;;;;;;;4.73;2.70;;;15.30;99.90;;;14.81;80.14;100514.69;5055533;28;20293;-73
2023/07/26 08:25:47;;;;;;;4.73;2.90;;;15.40;99.90;;;14.87;79.64;100519.28;5055389;28;20194;-73
2023/07/26 08:28:19;;;;;;;7.63;3.13;;;15.50;99.90;;;14.91;78.56;100505.25;5055430;28;20277;-73
2023/07/26 08:30:53;;;;;;;3.53;2.80;;;15.50;99.90;;;14.98;77.13;100505.28;5055236;28;20256;-74
2023/07/26 08:33:24;;;;;;;5.33;2.70;;;15.50;99.90;;;15.06;77.04;100507.88;5055325;28;20218;-73
2023/07/26 08:35:56;;;;;;;7.03;2.70;;;15.60;99.90;;;15.16;75.02;100508.34;5055191;28;20208;-73
2023/07/26 08:38:28;;;;;;;3.27;2.40;;;15.70;99.90;;;15.29;73.11;100503.06;5055186;28;20192;-73
2023/07/26 08:41:02;;;;;;;4.07;2.33;;;15.90;99.90;;;15.32;75.12;100502.66;5055034;28;20330;-73
2023/07/26 08:43:38;;;;;;;4.13;2.13;;;15.90;99.90;;;15.43;71.70;100494.03;5055097;28;20222;-73
2023/07/26 08:46:15;;;;;;;3.23;2.10;;;16.00;99.70;;;15.49;72.87;100497.81;5054710;28;20784;-73
2023/07/26 08:48:48;;;;;;;4.90;2.50;;;16.10;99.90;;;15.59;72.64;100490.22;5055243;28;20190;-73
2023/07/26 08:51:21;;;;;;;4.73;2.43;;;16.20;99.80;;;15.73;72.02;100494.66;5055418;28;20297;-73
2023/07/26 08:53:53;;;;;;;3.83;1.80;;;16.30;99.50;;;15.73;70.10;100500.88;5055146;28;20194;-73
2023/07/26 08:56:26;;;;;;;2.50;1.93;;;16.40;98.80;;;15.92;68.86;100498.50;5054511;28;20733;-74
2023/07/26 08:58:59;;;;;;;2.50;2.00;;;16.50;98.20;;;16.05;67.01;100495.84;5054804;28;20600;-74
2023/07/26 09:01:33;;;;;;;1.73;1.63;;;16.60;97.20;;;16.19;67.28;100493.00;5054770;28;20190;-74
2023/07/26 09:04:22;;;;;;;2.60;1.70;;;16.70;97.00;;;16.34;65.70;100503.63;5054701;28;20264;-74
2023/07/26 09:06:54;;;;;;;2.20;1.60;;;16.90;96.10;;;16.20;64.93;100504.63;5054547;28;20226;-74
2023/07/26 09:09:27;;;;;;;3.40;1.80;;;16.80;95.50;;;16.24;65.76;100501.31;5054329;28;20717;-74
2023/07/26 09:11:58;;;;;;;2.57;1.90;;;16.80;95.90;;;16.18;66.12;100504.00;5054165;28;20574;-74
2023/07/26 09:14:32;;;;;;;3.03;2.10;;;16.70;96.30;;;16.11;64.46;100503.13;5054048;28;20194;-74
2023/07/26 09:17:07;;;;;;;5.20;1.93;;;16.60;95.20;;;16.06;63.87;100506.44;5054381;28;20241;-74
2023/07/26 09:19:41;;;;;;;1.80;1.50;;;16.60;95.10;;;16.03;63.72;100506.00;5054430;28;20280;-74
2023/07/26 09:22:13;;;;;;;2.17;1.60;;;16.60;94.60;;;16.11;62.64;100500.44;5054868;28;20186;-74
2023/07/26 09:24:51;;;;;;;3.73;1.30;;;16.70;94.50;;;16.14;64.47;100502.72;5053996;28;20190;-73
2023/07/26 09:27:23;;;;;;;5.30;1.80;;;16.70;95.30;;;16.12;66.01;100500.25;5054110;28;20571;-73
2023/07/26 09:29:59;;;;;;;3.93;2.00;;;16.60;96.20;;;16.03;65.71;100490.63;5054226;28;20272;-74
2023/07/26 09:32:33;;;;;;;3.97;1.97;;;16.60;95.70;;;15.93;64.17;100489.34;5053806;28;20213;-74
2023/07/26 09:35:09;;;;;;;1.80;1.50;;;16.50;95.30;;;15.91;65.99;100492.25;5054155;28;20197;-74
2023/07/26 09:37:42;;;;;;;4.00;2.17;;;16.40;95.90;;;15.96;66.21;100488.97;5053720;28;20706;-74
2023/07/26 09:40:13;;;;;;;3.77;2.00;;;16.40;96.20;;;16.10;64.93;100486.09;5053599;28;20652;-74
2023/07/26 09:42:55;;;;;;;3.30;2.20;;;16.60;95.70;;;16.23;65.66;100482.63;5053932;28;20186;-74
2023/07/26 09:45:28;;;;;;;3.77;2.20;;;16.70;95.80;;;16.22;65.58;100479.09;5053644;28;20607;-74
2023/07/26 09:48:14;;;;;;;4.67;2.10;;;16.70;95.60;;;16.29;65.48;100475.56;5053870;28;20230;-73
2023/07/26 09:50:53;;;;;;;6.17;2.23;;;16.80;96.00;;;16.46;65.25;100475.00;5053579;28;20274;-73
2023/07/26 09:53:26;;;;;;;3.87;1.90;;;17.00;95.50;;;16.63;63.82;100475.47;5053756;28;20238;-73
2023/07/26 09:55:58;;;;;;;14.20;2.80;;;17.20;95.20;;;16.80;64.50;100470.47;5053743;28;20277;-73
2023/07/26 09:58:40;;;;;;;5.23;2.70;;;17.30;95.50;;;16.88;64.78;100467.59;5053751;28;20190;-74
2023/07/26 10:01:15;;;;;;;4.57;2.47;;;17.50;95.90;;;16.98;64.49;100473.41;5053704;28;20198;-73
2023/07/26 10:03:53;;;;;;;3.50;2.00;;;17.50;94.60;;;17.02;64.26;100464.66;5053427;28;20634;-73
2023/07/26 10:06:29;;;;;;;3.43;2.50;;;17.60;94.90;;;17.13;62.81;100468.59;5053601;28;20265;-73
2023/07/26 10:09:02;;;;;;;5.80;2.73;;;17.70;94.20;;;16.98;63.36;100468.00;5053578;28;20251;-73
2023/07/26 10:11:35;;;;;;;7.30;2.10;;;17.50;94.40;;;16.89;62.87;100464.66;5053514;28;20210;-73
2023/07/26 10:14:09;;;;;;;6.60;3.07;;;17.40;94.60;;;16.89;63.57;100469.22;5053543;28;20229;-73
2023/07/26 10:16:46;;;;;;;2.67;2.00;;;17.40;94.60;;;16.89;63.35;100469.22;5053336;28;20236;-74
2023/07/26 10:19:22;;;;;;;3.77;2.40;;;17.40;94.70;;;16.95;63.45;100468.44;5053206;28;20186;-74
2023/07/26 10:21:55;;;;;;;2.87;2.07;;;17.40;94.70;;;17.08;63.55;100469.25;5053149;28;20186;-75
2023/07/26 10:24:31;;;;;;;3.67;1.90;;;17.50;94.40;;;17.22;62.56;100456.53;5053433;28;20281;-75
2023/07/26 10:27:03;;;;;;;3.87;2.00;;;17.70;94.50;;;17.32;60.12;100450.69;5052509;28;20221;-74
2023/07/26 10:29:35;;;;;;;2.47;2.00;;;17.90;92.70;;;17.48;61.01;100458.34;5053093;28;20236;-74
2023/07/26 10:32:11;;;;;;;3.40;1.90;;;17.90;93.30;;;17.45;59.94;100456.91;5053297;28;20220;-74
2023/07/26 10:34:44;;;;;;;3.20;2.17;;;17.90;92.50;;;17.37;58.53;100457.13;5053320;28;20197;-74
2023/07/26 10:37:22;;;;;;;3.30;2.20;;;17.90;91.80;;;17.31;58.80;100449.03;5053274;28;20253;-74